sensor_id;sensor_type;location;lat;lon;timestamp;P1;durP1;ratioP1;P2;durP2;ratioP2
23573;SDS011;11965;53.640;10.050;2024-03-17T00:02:24;9.69;;;6.21;;
23573;SDS011;11965;53.640;10.050;2024-03-17T00:04:50;9.77;;;6.27;;
23573;SDS011;11965;53.640;10.050;2024-03-17T00:07:18;10.55;;;6.65;;
23573;SDS011;11965;53.640;10.050;2024-03-17T00:09:44;9.17;;;5.82;;
23573;SDS011;11965;53.640;10.050;2024-03-17T00:12:12;8.07;;;5.34;;
23573;SDS011;11965;53.640;10.050;2024-03-17T00:14:38;8.75;;;5.60;;
23573;SDS011;11965;53.640;10.050;2024-03-17T00:17:05;8.97;;;5.71;;
23573;SDS011;11965;53.640;10.050;2024-03-17T00:19:31;8.96;;;5.82;;
23573;SDS011;11965;53.640;10.050;2024-03-17T00:21:58;9.13;;;5.95;;
23573;SDS011;11965;53.640;10.050;2024-03-17T00:24:25;9.02;;;5.84;;
23573;SDS011;11965;53.640;10.050;2024-03-17T00:27:00;8.44;;;5.53;;
23573;SDS011;11965;53.640;10.050;2024-03-17T00:29:26;8.39;;;5.62;;
23573;SDS011;11965;53.640;10.050;2024-03-17T00:31:54;8.69;;;5.75;;
23573;SDS011;11965;53.640;10.050;2024-03-17T00:34:20;8.45;;;5.68;;
23573;SDS011;11965;53.640;10.050;2024-03-17T00:36:47;8.38;;;5.71;;
23573;SDS011;11965;53.640;10.050;2024-03-17T00:39:13;9.14;;;6.19;;
23573;SDS011;11965;53.640;10.050;2024-03-17T00:41:42;9.65;;;6.37;;
23573;SDS011;11965;53.640;10.050;2024-03-17T00:44:09;8.45;;;5.58;;
23573;SDS011;11965;53.640;10.050;2024-03-17T00:46:36;10.31;;;6.77;;
23573;SDS011;11965;53.640;10.050;2024-03-17T00:49:02;9.05;;;6.01;;
23573;SDS011;11965;53.640;10.050;2024-03-17T00:51:29;8.75;;;5.76;;
23573;SDS011;11965;53.640;10.050;2024-03-17T00:53:55;9.47;;;6.11;;
23573;SDS011;11965;53.640;10.050;2024-03-17T00:56:23;8.91;;;5.86;;
23573;SDS011;11965;53.640;10.050;2024-03-17T00:58:50;10.58;;;7.01;;
23573;SDS011;11965;53.640;10.050;2024-03-17T01:01:18;10.15;;;6.68;;
23573;SDS011;11965;53.640;10.050;2024-03-17T01:03:44;9.65;;;6.46;;
23573;SDS011;11965;53.640;10.050;2024-03-17T01:06:11;9.53;;;6.30;;
23573;SDS011;11965;53.640;10.050;2024-03-17T01:08:37;9.49;;;6.27;;
23573;SDS011;11965;53.640;10.050;2024-03-17T01:11:04;10.15;;;6.54;;
23573;SDS011;11965;53.640;10.050;2024-03-17T01:13:33;9.09;;;5.92;;
23573;SDS011;11965;53.640;10.050;2024-03-17T01:16:04;9.85;;;6.50;;
23573;SDS011;11965;53.640;10.050;2024-03-17T01:18:30;9.34;;;6.19;;
23573;SDS011;11965;53.640;10.050;2024-03-17T01:20:57;8.89;;;6.00;;
23573;SDS011;11965;53.640;10.050;2024-03-17T01:23:23;9.99;;;6.71;;
23573;SDS011;11965;53.640;10.050;2024-03-17T01:25:50;9.32;;;6.26;;
23573;SDS011;11965;53.640;10.050;2024-03-17T01:28:16;9.34;;;6.25;;
23573;SDS011;11965;53.640;10.050;2024-03-17T01:30:43;9.23;;;6.19;;
23573;SDS011;11965;53.640;10.050;2024-03-17T01:33:10;9.23;;;6.31;;
23573;SDS011;11965;53.640;10.050;2024-03-17T01:35:37;8.81;;;6.17;;
23573;SDS011;11965;53.640;10.050;2024-03-17T01:38:03;8.36;;;5.91;;
23573;SDS011;11965;53.640;10.050;2024-03-17T01:40:30;8.36;;;5.83;;
23573;SDS011;11965;53.640;10.050;2024-03-17T01:42:56;9.16;;;6.28;;
23573;SDS011;11965;53.640;10.050;2024-03-17T01:45:27;8.05;;;5.53;;
23573;SDS011;11965;53.640;10.050;2024-03-17T01:47:55;7.98;;;5.52;;
23573;SDS011;11965;53.640;10.050;2024-03-17T01:50:25;9.01;;;6.15;;
23573;SDS011;11965;53.640;10.050;2024-03-17T01:52:57;8.12;;;5.65;;
23573;SDS011;11965;53.640;10.050;2024-03-17T01:55:30;8.35;;;5.67;;
23573;SDS011;11965;53.640;10.050;2024-03-17T01:57:57;8.88;;;6.01;;
23573;SDS011;11965;53.640;10.050;2024-03-17T02:00:24;8.28;;;5.61;;
23573;SDS011;11965;53.640;10.050;2024-03-17T02:02:51;8.12;;;5.40;;
23573;SDS011;11965;53.640;10.050;2024-03-17T02:05:18;8.32;;;5.62;;
23573;SDS011;11965;53.640;10.050;2024-03-17T02:07:46;7.50;;;5.16;;
23573;SDS011;11965;53.640;10.050;2024-03-17T02:10:13;7.18;;;5.06;;
23573;SDS011;11965;53.640;10.050;2024-03-17T02:12:40;7.00;;;4.92;;
23573;SDS011;11965;53.640;10.050;2024-03-17T02:15:07;8.05;;;5.59;;
23573;SDS011;11965;53.640;10.050;2024-03-17T02:17:34;7.58;;;5.24;;
23573;SDS011;11965;53.640;10.050;2024-03-17T02:20:02;7.93;;;5.55;;
23573;SDS011;11965;53.640;10.050;2024-03-17T02:22:34;7.32;;;5.05;;
23573;SDS011;11965;53.640;10.050;2024-03-17T02:25:01;8.32;;;5.68;;
23573;SDS011;11965;53.640;10.050;2024-03-17T02:27:27;7.80;;;5.30;;
23573;SDS011;11965;53.640;10.050;2024-03-17T02:29:54;7.93;;;5.41;;
23573;SDS011;11965;53.640;10.050;2024-03-17T02:32:20;8.11;;;5.65;;
23573;SDS011;11965;53.640;10.050;2024-03-17T02:34:48;8.29;;;5.80;;
23573;SDS011;11965;53.640;10.050;2024-03-17T02:37:14;7.26;;;5.08;;
23573;SDS011;11965;53.640;10.050;2024-03-17T02:39:42;7.49;;;5.27;;
23573;SDS011;11965;53.640;10.050;2024-03-17T02:42:08;8.03;;;5.67;;
23573;SDS011;11965;53.640;10.050;2024-03-17T02:44:38;7.87;;;5.51;;
23573;SDS011;11965;53.640;10.050;2024-03-17T02:47:06;6.44;;;4.53;;
23573;SDS011;11965;53.640;10.050;2024-03-17T02:49:35;7.05;;;4.95;;
23573;SDS011;11965;53.640;10.050;2024-03-17T02:52:05;7.90;;;5.47;;
23573;SDS011;11965;53.640;10.050;2024-03-17T02:54:34;7.00;;;4.90;;
23573;SDS011;11965;53.640;10.050;2024-03-17T02:57:03;7.31;;;5.05;;
23573;SDS011;11965;53.640;10.050;2024-03-17T02:59:31;7.43;;;5.19;;
23573;SDS011;11965;53.640;10.050;2024-03-17T03:01:59;7.05;;;4.91;;
23573;SDS011;11965;53.640;10.050;2024-03-17T03:04:26;6.47;;;4.56;;
23573;SDS011;11965;53.640;10.050;2024-03-17T03:06:54;7.38;;;5.30;;
23573;SDS011;11965;53.640;10.050;2024-03-17T03:09:21;5.97;;;4.32;;
23573;SDS011;11965;53.640;10.050;2024-03-17T03:11:51;6.54;;;4.78;;
23573;SDS011;11965;53.640;10.050;2024-03-17T03:14:20;7.23;;;5.12;;
23573;SDS011;11965;53.640;10.050;2024-03-17T03:16:47;6.18;;;4.50;;
23573;SDS011;11965;53.640;10.050;2024-03-17T03:19:15;7.25;;;5.26;;
23573;SDS011;11965;53.640;10.050;2024-03-17T03:21:44;6.84;;;4.99;;
23573;SDS011;11965;53.640;10.050;2024-03-17T03:24:13;7.36;;;5.31;;
23573;SDS011;11965;53.640;10.050;2024-03-17T03:26:40;6.40;;;4.71;;
23573;SDS011;11965;53.640;10.050;2024-03-17T03:29:07;6.76;;;4.92;;
23573;SDS011;11965;53.640;10.050;2024-03-17T03:31:37;7.56;;;5.51;;
23573;SDS011;11965;53.640;10.050;2024-03-17T03:34:05;6.77;;;5.03;;
23573;SDS011;11965;53.640;10.050;2024-03-17T03:36:33;7.31;;;5.29;;
23573;SDS011;11965;53.640;10.050;2024-03-17T03:39:00;7.40;;;5.38;;
23573;SDS011;11965;53.640;10.050;2024-03-17T03:41:30;6.49;;;4.90;;
23573;SDS011;11965;53.640;10.050;2024-03-17T03:43:58;5.76;;;4.38;;
23573;SDS011;11965;53.640;10.050;2024-03-17T03:46:25;6.32;;;4.78;;
23573;SDS011;11965;53.640;10.050;2024-03-17T03:48:53;6.15;;;4.68;;
23573;SDS011;11965;53.640;10.050;2024-03-17T03:51:21;6.12;;;4.66;;
23573;SDS011;11965;53.640;10.050;2024-03-17T03:53:48;6.44;;;4.68;;
23573;SDS011;11965;53.640;10.050;2024-03-17T03:56:14;6.78;;;4.90;;
23573;SDS011;11965;53.640;10.050;2024-03-17T03:58:42;6.83;;;5.03;;
23573;SDS011;11965;53.640;10.050;2024-03-17T04:01:11;7.20;;;5.20;;
23573;SDS011;11965;53.640;10.050;2024-03-17T04:03:40;7.34;;;5.29;;
23573;SDS011;11965;53.640;10.050;2024-03-17T04:06:10;6.83;;;5.07;;
23573;SDS011;11965;53.640;10.050;2024-03-17T04:08:39;7.13;;;5.35;;
23573;SDS011;11965;53.640;10.050;2024-03-17T04:11:06;7.11;;;5.31;;
23573;SDS011;11965;53.640;10.050;2024-03-17T04:13:34;7.95;;;5.85;;
23573;SDS011;11965;53.640;10.050;2024-03-17T04:16:03;7.77;;;5.76;;
23573;SDS011;11965;53.640;10.050;2024-03-17T04:18:31;7.87;;;5.89;;
23573;SDS011;11965;53.640;10.050;2024-03-17T04:21:00;7.04;;;5.43;;
23573;SDS011;11965;53.640;10.050;2024-03-17T04:23:30;7.22;;;5.42;;
23573;SDS011;11965;53.640;10.050;2024-03-17T04:25:57;6.91;;;5.27;;
23573;SDS011;11965;53.640;10.050;2024-03-17T04:28:25;6.82;;;5.16;;
23573;SDS011;11965;53.640;10.050;2024-03-17T04:30:52;7.32;;;5.52;;
23573;SDS011;11965;53.640;10.050;2024-03-17T04:33:18;7.40;;;5.66;;
23573;SDS011;11965;53.640;10.050;2024-03-17T04:35:46;6.95;;;5.28;;
23573;SDS011;11965;53.640;10.050;2024-03-17T04:38:13;7.13;;;5.51;;
23573;SDS011;11965;53.640;10.050;2024-03-17T04:40:43;6.26;;;4.93;;
23573;SDS011;11965;53.640;10.050;2024-03-17T04:43:11;5.48;;;4.38;;
23573;SDS011;11965;53.640;10.050;2024-03-17T04:45:38;6.32;;;4.96;;
23573;SDS011;11965;53.640;10.050;2024-03-17T04:48:05;6.36;;;4.89;;
23573;SDS011;11965;53.640;10.050;2024-03-17T04:50:33;5.54;;;4.43;;
23573;SDS011;11965;53.640;10.050;2024-03-17T04:53:00;5.96;;;4.80;;
23573;SDS011;11965;53.640;10.050;2024-03-17T04:55:27;6.33;;;4.99;;
23573;SDS011;11965;53.640;10.050;2024-03-17T04:57:56;6.58;;;5.04;;
23573;SDS011;11965;53.640;10.050;2024-03-17T05:00:23;6.88;;;5.20;;
23573;SDS011;11965;53.640;10.050;2024-03-17T05:02:48;6.26;;;4.70;;
23573;SDS011;11965;53.640;10.050;2024-03-17T05:05:15;6.94;;;5.19;;
23573;SDS011;11965;53.640;10.050;2024-03-17T05:07:42;7.07;;;5.41;;
23573;SDS011;11965;53.640;10.050;2024-03-17T05:10:09;6.54;;;4.98;;
23573;SDS011;11965;53.640;10.050;2024-03-17T05:12:36;5.74;;;4.49;;
23573;SDS011;11965;53.640;10.050;2024-03-17T05:15:05;6.87;;;5.33;;
23573;SDS011;11965;53.640;10.050;2024-03-17T05:17:32;6.61;;;5.06;;
23573;SDS011;11965;53.640;10.050;2024-03-17T05:20:00;6.36;;;4.96;;
23573;SDS011;11965;53.640;10.050;2024-03-17T05:22:27;6.40;;;5.13;;
23573;SDS011;11965;53.640;10.050;2024-03-17T05:24:54;6.07;;;4.81;;
23573;SDS011;11965;53.640;10.050;2024-03-17T05:27:22;6.18;;;4.88;;
23573;SDS011;11965;53.640;10.050;2024-03-17T05:29:49;5.86;;;4.78;;
23573;SDS011;11965;53.640;10.050;2024-03-17T05:32:18;5.91;;;4.79;;
23573;SDS011;11965;53.640;10.050;2024-03-17T05:34:44;6.37;;;5.13;;
23573;SDS011;11965;53.640;10.050;2024-03-17T05:37:12;6.25;;;5.05;;
23573;SDS011;11965;53.640;10.050;2024-03-17T05:39:39;5.75;;;4.64;;
23573;SDS011;11965;53.640;10.050;2024-03-17T05:42:06;6.42;;;5.15;;
23573;SDS011;11965;53.640;10.050;2024-03-17T05:44:33;6.03;;;4.84;;
23573;SDS011;11965;53.640;10.050;2024-03-17T05:47:16;5.80;;;4.76;;
23573;SDS011;11965;53.640;10.050;2024-03-17T05:49:45;6.12;;;5.13;;
23573;SDS011;11965;53.640;10.050;2024-03-17T05:52:12;5.56;;;4.63;;
23573;SDS011;11965;53.640;10.050;2024-03-17T05:54:38;6.25;;;5.08;;
23573;SDS011;11965;53.640;10.050;2024-03-17T05:57:05;6.33;;;5.11;;
23573;SDS011;11965;53.640;10.050;2024-03-17T05:59:34;6.80;;;5.35;;
23573;SDS011;11965;53.640;10.050;2024-03-17T06:02:01;6.31;;;5.08;;
23573;SDS011;11965;53.640;10.050;2024-03-17T06:04:29;6.12;;;5.03;;
23573;SDS011;11965;53.640;10.050;2024-03-17T06:06:56;6.06;;;5.01;;
23573;SDS011;11965;53.640;10.050;2024-03-17T06:09:23;5.81;;;4.83;;
23573;SDS011;11965;53.640;10.050;2024-03-17T06:11:50;5.48;;;4.61;;
23573;SDS011;11965;53.640;10.050;2024-03-17T06:14:17;6.29;;;5.16;;
23573;SDS011;11965;53.640;10.050;2024-03-17T06:16:45;5.62;;;4.61;;
23573;SDS011;11965;53.640;10.050;2024-03-17T06:19:12;6.15;;;5.05;;
23573;SDS011;11965;53.640;10.050;2024-03-17T06:21:41;5.47;;;4.53;;
23573;SDS011;11965;53.640;10.050;2024-03-17T06:24:08;6.08;;;4.99;;
23573;SDS011;11965;53.640;10.050;2024-03-17T06:26:35;6.21;;;4.98;;
23573;SDS011;11965;53.640;10.050;2024-03-17T06:29:02;5.75;;;4.72;;
23573;SDS011;11965;53.640;10.050;2024-03-17T06:31:29;5.84;;;4.93;;
23573;SDS011;11965;53.640;10.050;2024-03-17T06:33:56;5.82;;;5.02;;
23573;SDS011;11965;53.640;10.050;2024-03-17T06:36:23;5.80;;;5.00;;
23573;SDS011;11965;53.640;10.050;2024-03-17T06:38:51;6.06;;;5.13;;
23573;SDS011;11965;53.640;10.050;2024-03-17T06:41:19;6.15;;;5.35;;
23573;SDS011;11965;53.640;10.050;2024-03-17T06:43:46;6.45;;;5.62;;
23573;SDS011;11965;53.640;10.050;2024-03-17T06:46:13;6.14;;;5.31;;
23573;SDS011;11965;53.640;10.050;2024-03-17T06:48:40;6.13;;;5.55;;
23573;SDS011;11965;53.640;10.050;2024-03-17T06:51:07;6.51;;;5.83;;
23573;SDS011;11965;53.640;10.050;2024-03-17T06:53:34;6.43;;;5.69;;
23573;SDS011;11965;53.640;10.050;2024-03-17T06:56:03;6.08;;;5.45;;
23573;SDS011;11965;53.640;10.050;2024-03-17T06:58:31;6.38;;;5.75;;
23573;SDS011;11965;53.640;10.050;2024-03-17T07:00:58;6.63;;;5.94;;
23573;SDS011;11965;53.640;10.050;2024-03-17T07:03:27;6.54;;;5.83;;
23573;SDS011;11965;53.640;10.050;2024-03-17T07:05:57;7.13;;;6.35;;
23573;SDS011;11965;53.640;10.050;2024-03-17T07:08:27;6.72;;;6.03;;
23573;SDS011;11965;53.640;10.050;2024-03-17T07:10:58;7.21;;;6.39;;
23573;SDS011;11965;53.640;10.050;2024-03-17T07:13:30;7.45;;;6.49;;
23573;SDS011;11965;53.640;10.050;2024-03-17T07:15:58;7.03;;;6.08;;
23573;SDS011;11965;53.640;10.050;2024-03-17T07:18:26;6.92;;;6.26;;
23573;SDS011;11965;53.640;10.050;2024-03-17T07:20:56;7.03;;;6.25;;
23573;SDS011;11965;53.640;10.050;2024-03-17T07:23:24;7.22;;;6.21;;
23573;SDS011;11965;53.640;10.050;2024-03-17T07:25:51;7.22;;;6.21;;
23573;SDS011;11965;53.640;10.050;2024-03-17T07:28:20;7.32;;;6.43;;
23573;SDS011;11965;53.640;10.050;2024-03-17T07:30:49;7.01;;;6.12;;
23573;SDS011;11965;53.640;10.050;2024-03-17T07:33:16;6.64;;;5.79;;
23573;SDS011;11965;53.640;10.050;2024-03-17T07:35:49;6.76;;;5.82;;
23573;SDS011;11965;53.640;10.050;2024-03-17T07:38:16;5.68;;;4.98;;
23573;SDS011;11965;53.640;10.050;2024-03-17T07:40:45;5.93;;;5.19;;
23573;SDS011;11965;53.640;10.050;2024-03-17T07:43:22;6.07;;;5.26;;
23573;SDS011;11965;53.640;10.050;2024-03-17T07:45:57;6.08;;;5.03;;
23573;SDS011;11965;53.640;10.050;2024-03-17T07:48:25;5.61;;;4.65;;
23573;SDS011;11965;53.640;10.050;2024-03-17T07:50:55;5.06;;;4.21;;
23573;SDS011;11965;53.640;10.050;2024-03-17T07:53:22;6.06;;;4.86;;
23573;SDS011;11965;53.640;10.050;2024-03-17T07:55:56;6.27;;;4.83;;
23573;SDS011;11965;53.640;10.050;2024-03-17T07:58:24;6.00;;;4.56;;
23573;SDS011;11965;53.640;10.050;2024-03-17T08:00:52;5.85;;;4.49;;
23573;SDS011;11965;53.640;10.050;2024-03-17T08:03:20;6.21;;;4.74;;
23573;SDS011;11965;53.640;10.050;2024-03-17T08:05:48;6.46;;;4.86;;
23573;SDS011;11965;53.640;10.050;2024-03-17T08:08:16;5.48;;;4.10;;
23573;SDS011;11965;53.640;10.050;2024-03-17T08:10:43;5.73;;;4.29;;
23573;SDS011;11965;53.640;10.050;2024-03-17T08:13:10;5.67;;;4.38;;
23573;SDS011;11965;53.640;10.050;2024-03-17T08:15:37;6.13;;;4.70;;
23573;SDS011;11965;53.640;10.050;2024-03-17T08:18:04;5.17;;;3.93;;
23573;SDS011;11965;53.640;10.050;2024-03-17T08:20:37;4.92;;;3.74;;
23573;SDS011;11965;53.640;10.050;2024-03-17T08:23:04;5.80;;;4.07;;
23573;SDS011;11965;53.640;10.050;2024-03-17T08:25:32;5.95;;;4.01;;
23573;SDS011;11965;53.640;10.050;2024-03-17T08:27:59;6.57;;;4.40;;
23573;SDS011;11965;53.640;10.050;2024-03-17T08:30:26;5.98;;;4.01;;
23573;SDS011;11965;53.640;10.050;2024-03-17T08:32:53;5.67;;;3.86;;
23573;SDS011;11965;53.640;10.050;2024-03-17T08:35:20;5.98;;;4.08;;
23573;SDS011;11965;53.640;10.050;2024-03-17T08:37:48;5.79;;;4.03;;
23573;SDS011;11965;53.640;10.050;2024-03-17T08:40:16;5.29;;;3.57;;
23573;SDS011;11965;53.640;10.050;2024-03-17T08:42:44;6.43;;;4.24;;
23573;SDS011;11965;53.640;10.050;2024-03-17T08:45:11;5.93;;;3.87;;
23573;SDS011;11965;53.640;10.050;2024-03-17T08:47:39;6.05;;;3.88;;
23573;SDS011;11965;53.640;10.050;2024-03-17T08:50:06;5.81;;;3.75;;
23573;SDS011;11965;53.640;10.050;2024-03-17T08:52:34;5.69;;;3.64;;
23573;SDS011;11965;53.640;10.050;2024-03-17T08:55:03;5.41;;;3.54;;
23573;SDS011;11965;53.640;10.050;2024-03-17T08:57:35;6.31;;;4.09;;
23573;SDS011;11965;53.640;10.050;2024-03-17T09:00:02;5.74;;;3.69;;
23573;SDS011;11965;53.640;10.050;2024-03-17T09:02:30;5.68;;;3.64;;
23573;SDS011;11965;53.640;10.050;2024-03-17T09:04:57;6.08;;;3.90;;
23573;SDS011;11965;53.640;10.050;2024-03-17T09:07:24;6.16;;;3.93;;
23573;SDS011;11965;53.640;10.050;2024-03-17T09:09:51;6.83;;;4.29;;
23573;SDS011;11965;53.640;10.050;2024-03-17T09:12:19;7.77;;;4.82;;
23573;SDS011;11965;53.640;10.050;2024-03-17T09:14:46;7.60;;;4.71;;
23573;SDS011;11965;53.640;10.050;2024-03-17T09:17:13;10.61;;;7.56;;
23573;SDS011;11965;53.640;10.050;2024-03-17T09:19:40;6.77;;;5.25;;
23573;SDS011;11965;53.640;10.050;2024-03-17T09:22:07;4.75;;;3.61;;
23573;SDS011;11965;53.640;10.050;2024-03-17T09:24:34;7.54;;;5.45;;
23573;SDS011;11965;53.640;10.050;2024-03-17T09:27:01;5.50;;;4.03;;
23573;SDS011;11965;53.640;10.050;2024-03-17T09:29:30;5.11;;;3.62;;
23573;SDS011;11965;53.640;10.050;2024-03-17T09:31:58;5.74;;;4.00;;
23573;SDS011;11965;53.640;10.050;2024-03-17T09:34:25;6.42;;;4.39;;
23573;SDS011;11965;53.640;10.050;2024-03-17T09:36:52;5.15;;;3.54;;
23573;SDS011;11965;53.640;10.050;2024-03-17T09:39:19;5.41;;;3.68;;
23573;SDS011;11965;53.640;10.050;2024-03-17T09:41:46;6.06;;;4.10;;
23573;SDS011;11965;53.640;10.050;2024-03-17T09:44:13;6.09;;;4.07;;
23573;SDS011;11965;53.640;10.050;2024-03-17T09:46:42;6.64;;;4.39;;
23573;SDS011;11965;53.640;10.050;2024-03-17T09:49:09;6.21;;;4.14;;
23573;SDS011;11965;53.640;10.050;2024-03-17T09:51:42;6.19;;;4.15;;
23573;SDS011;11965;53.640;10.050;2024-03-17T09:54:15;6.08;;;4.06;;
23573;SDS011;11965;53.640;10.050;2024-03-17T09:56:45;6.25;;;4.17;;
23573;SDS011;11965;53.640;10.050;2024-03-17T09:59:12;5.89;;;3.84;;
23573;SDS011;11965;53.640;10.050;2024-03-17T10:01:39;6.83;;;4.50;;
23573;SDS011;11965;53.640;10.050;2024-03-17T10:04:09;5.75;;;3.77;;
23573;SDS011;11965;53.640;10.050;2024-03-17T10:06:44;6.14;;;4.09;;
23573;SDS011;11965;53.640;10.050;2024-03-17T10:09:16;6.38;;;4.24;;
23573;SDS011;11965;53.640;10.050;2024-03-17T10:11:47;6.57;;;4.24;;
23573;SDS011;11965;53.640;10.050;2024-03-17T10:14:16;7.49;;;4.86;;
23573;SDS011;11965;53.640;10.050;2024-03-17T10:16:43;6.39;;;4.35;;
23573;SDS011;11965;53.640;10.050;2024-03-17T10:19:13;5.95;;;4.06;;
23573;SDS011;11965;53.640;10.050;2024-03-17T10:21:42;5.29;;;3.59;;
23573;SDS011;11965;53.640;10.050;2024-03-17T10:24:13;4.45;;;3.03;;
23573;SDS011;11965;53.640;10.050;2024-03-17T10:26:46;4.71;;;3.22;;
23573;SDS011;11965;53.640;10.050;2024-03-17T10:29:23;5.17;;;3.49;;
23573;SDS011;11965;53.640;10.050;2024-03-17T10:31:52;5.22;;;3.49;;
23573;SDS011;11965;53.640;10.050;2024-03-17T10:34:22;5.36;;;3.58;;
23573;SDS011;11965;53.640;10.050;2024-03-17T10:36:51;4.87;;;3.23;;
23573;SDS011;11965;53.640;10.050;2024-03-17T10:39:23;4.60;;;3.00;;
23573;SDS011;11965;53.640;10.050;2024-03-17T10:41:57;4.84;;;3.19;;
23573;SDS011;11965;53.640;10.050;2024-03-17T10:46:54;5.23;;;3.49;;
23573;SDS011;11965;53.640;10.050;2024-03-17T10:49:25;5.31;;;3.50;;
23573;SDS011;11965;53.640;10.050;2024-03-17T10:51:57;5.89;;;3.77;;
23573;SDS011;11965;53.640;10.050;2024-03-17T10:54:25;5.91;;;3.71;;
23573;SDS011;11965;53.640;10.050;2024-03-17T10:56:55;5.50;;;3.46;;
23573;SDS011;11965;53.640;10.050;2024-03-17T10:59:30;5.44;;;3.39;;
23573;SDS011;11965;53.640;10.050;2024-03-17T11:02:08;5.27;;;3.24;;
23573;SDS011;11965;53.640;10.050;2024-03-17T11:04:51;5.18;;;3.22;;
23573;SDS011;11965;53.640;10.050;2024-03-17T11:07:21;5.39;;;3.44;;
23573;SDS011;11965;53.640;10.050;2024-03-17T11:09:50;4.97;;;3.22;;
23573;SDS011;11965;53.640;10.050;2024-03-17T11:12:39;5.32;;;3.47;;
23573;SDS011;11965;53.640;10.050;2024-03-17T11:21:21;4.94;;;3.20;;
23573;SDS011;11965;53.640;10.050;2024-03-17T11:23:54;5.90;;;3.76;;
23573;SDS011;11965;53.640;10.050;2024-03-17T11:26:28;5.34;;;3.41;;
23573;SDS011;11965;53.640;10.050;2024-03-17T11:28:56;4.54;;;2.85;;
23573;SDS011;11965;53.640;10.050;2024-03-17T11:31:32;5.35;;;3.38;;
23573;SDS011;11965;53.640;10.050;2024-03-17T11:36:58;5.14;;;3.26;;
23573;SDS011;11965;53.640;10.050;2024-03-17T11:42:21;4.76;;;3.08;;
23573;SDS011;11965;53.640;10.050;2024-03-17T11:44:56;5.19;;;3.39;;
23573;SDS011;11965;53.640;10.050;2024-03-17T11:47:34;4.66;;;3.03;;
23573;SDS011;11965;53.640;10.050;2024-03-17T11:50:03;4.62;;;3.00;;
23573;SDS011;11965;53.640;10.050;2024-03-17T11:52:34;4.80;;;3.12;;
23573;SDS011;11965;53.640;10.050;2024-03-17T11:55:01;4.91;;;3.16;;
23573;SDS011;11965;53.640;10.050;2024-03-17T11:57:27;4.42;;;2.87;;
23573;SDS011;11965;53.640;10.050;2024-03-17T11:59:55;4.65;;;3.03;;
23573;SDS011;11965;53.640;10.050;2024-03-17T12:02:22;5.21;;;3.37;;
23573;SDS011;11965;53.640;10.050;2024-03-17T12:04:51;5.23;;;3.38;;
23573;SDS011;11965;53.640;10.050;2024-03-17T12:07:18;5.63;;;3.67;;
23573;SDS011;11965;53.640;10.050;2024-03-17T12:09:50;4.66;;;3.07;;
23573;SDS011;11965;53.640;10.050;2024-03-17T12:12:20;5.61;;;3.69;;
23573;SDS011;11965;53.640;10.050;2024-03-17T12:14:47;5.32;;;3.42;;
23573;SDS011;11965;53.640;10.050;2024-03-17T12:17:19;4.79;;;3.10;;
23573;SDS011;11965;53.640;10.050;2024-03-17T12:19:46;4.65;;;3.06;;
23573;SDS011;11965;53.640;10.050;2024-03-17T12:22:15;4.73;;;3.17;;
23573;SDS011;11965;53.640;10.050;2024-03-17T12:24:46;4.89;;;3.33;;
23573;SDS011;11965;53.640;10.050;2024-03-17T12:27:17;5.08;;;3.41;;
23573;SDS011;11965;53.640;10.050;2024-03-17T12:29:44;5.22;;;3.45;;
23573;SDS011;11965;53.640;10.050;2024-03-17T12:32:13;4.84;;;3.19;;
23573;SDS011;11965;53.640;10.050;2024-03-17T12:34:42;4.46;;;3.02;;
23573;SDS011;11965;53.640;10.050;2024-03-17T12:37:14;4.95;;;3.35;;
23573;SDS011;11965;53.640;10.050;2024-03-17T12:39:43;4.81;;;3.22;;
23573;SDS011;11965;53.640;10.050;2024-03-17T12:42:12;5.75;;;3.80;;
23573;SDS011;11965;53.640;10.050;2024-03-17T12:44:49;5.55;;;3.69;;
23573;SDS011;11965;53.640;10.050;2024-03-17T12:47:18;4.73;;;3.20;;
23573;SDS011;11965;53.640;10.050;2024-03-17T12:49:45;4.94;;;3.33;;
23573;SDS011;11965;53.640;10.050;2024-03-17T12:52:20;5.31;;;3.58;;
23573;SDS011;11965;53.640;10.050;2024-03-17T12:54:57;4.90;;;3.31;;
23573;SDS011;11965;53.640;10.050;2024-03-17T12:57:39;4.67;;;3.15;;
23573;SDS011;11965;53.640;10.050;2024-03-17T13:00:22;4.99;;;3.30;;
23573;SDS011;11965;53.640;10.050;2024-03-17T13:02:59;5.83;;;3.96;;
23573;SDS011;11965;53.640;10.050;2024-03-17T13:05:26;5.72;;;3.96;;
23573;SDS011;11965;53.640;10.050;2024-03-17T13:07:53;4.27;;;3.01;;
23573;SDS011;11965;53.640;10.050;2024-03-17T13:10:22;4.80;;;3.43;;
23573;SDS011;11965;53.640;10.050;2024-03-17T13:12:58;5.01;;;3.65;;
23573;SDS011;11965;53.640;10.050;2024-03-17T13:15:28;4.65;;;3.37;;
23573;SDS011;11965;53.640;10.050;2024-03-17T13:17:57;5.28;;;3.81;;
23573;SDS011;11965;53.640;10.050;2024-03-17T13:20:24;4.79;;;3.50;;
23573;SDS011;11965;53.640;10.050;2024-03-17T13:22:52;4.55;;;3.37;;
23573;SDS011;11965;53.640;10.050;2024-03-17T13:25:21;4.21;;;3.15;;
23573;SDS011;11965;53.640;10.050;2024-03-17T13:27:51;4.35;;;3.25;;
23573;SDS011;11965;53.640;10.050;2024-03-17T13:30:19;4.69;;;3.53;;
23573;SDS011;11965;53.640;10.050;2024-03-17T13:32:50;4.16;;;3.21;;
23573;SDS011;11965;53.640;10.050;2024-03-17T13:35:21;4.66;;;3.66;;
23573;SDS011;11965;53.640;10.050;2024-03-17T13:37:50;3.99;;;3.10;;
23573;SDS011;11965;53.640;10.050;2024-03-17T13:40:20;4.19;;;3.15;;
23573;SDS011;11965;53.640;10.050;2024-03-17T13:42:49;4.19;;;3.15;;
23573;SDS011;11965;53.640;10.050;2024-03-17T13:45:17;4.30;;;3.28;;
23573;SDS011;11965;53.640;10.050;2024-03-17T13:47:49;4.84;;;3.62;;
23573;SDS011;11965;53.640;10.050;2024-03-17T13:50:21;4.92;;;3.76;;
23573;SDS011;11965;53.640;10.050;2024-03-17T13:52:48;4.12;;;3.15;;
23573;SDS011;11965;53.640;10.050;2024-03-17T13:55:16;4.09;;;3.09;;
23573;SDS011;11965;53.640;10.050;2024-03-17T13:57:45;4.39;;;3.30;;
23573;SDS011;11965;53.640;10.050;2024-03-17T14:00:16;4.66;;;3.53;;
23573;SDS011;11965;53.640;10.050;2024-03-17T14:02:44;4.27;;;3.28;;
23573;SDS011;11965;53.640;10.050;2024-03-17T14:05:14;4.10;;;3.18;;
23573;SDS011;11965;53.640;10.050;2024-03-17T14:07:43;4.43;;;3.47;;
23573;SDS011;11965;53.640;10.050;2024-03-17T14:10:11;3.91;;;3.07;;
23573;SDS011;11965;53.640;10.050;2024-03-17T14:12:39;5.72;;;4.52;;
23573;SDS011;11965;53.640;10.050;2024-03-17T14:15:07;4.27;;;3.38;;
23573;SDS011;11965;53.640;10.050;2024-03-17T14:17:42;4.78;;;3.68;;
23573;SDS011;11965;53.640;10.050;2024-03-17T14:20:10;7.96;;;6.48;;
23573;SDS011;11965;53.640;10.050;2024-03-17T14:22:43;6.71;;;5.88;;
23573;SDS011;11965;53.640;10.050;2024-03-17T14:25:14;3.61;;;3.07;;
23573;SDS011;11965;53.640;10.050;2024-03-17T14:27:42;4.11;;;3.24;;
23573;SDS011;11965;53.640;10.050;2024-03-17T14:30:10;4.21;;;3.19;;
23573;SDS011;11965;53.640;10.050;2024-03-17T14:32:42;4.67;;;3.54;;
23573;SDS011;11965;53.640;10.050;2024-03-17T14:35:09;3.65;;;2.73;;
23573;SDS011;11965;53.640;10.050;2024-03-17T14:37:41;3.96;;;2.98;;
23573;SDS011;11965;53.640;10.050;2024-03-17T14:40:13;4.12;;;3.17;;
23573;SDS011;11965;53.640;10.050;2024-03-17T14:42:46;3.31;;;2.56;;
23573;SDS011;11965;53.640;10.050;2024-03-17T14:45:15;3.63;;;2.79;;
23573;SDS011;11965;53.640;10.050;2024-03-17T14:47:42;3.75;;;2.91;;
23573;SDS011;11965;53.640;10.050;2024-03-17T14:50:09;3.94;;;3.02;;
23573;SDS011;11965;53.640;10.050;2024-03-17T14:52:39;4.12;;;3.08;;
23573;SDS011;11965;53.640;10.050;2024-03-17T14:55:07;4.43;;;3.32;;
23573;SDS011;11965;53.640;10.050;2024-03-17T14:57:35;3.57;;;2.75;;